NORTHERN QUEENS  -  Air Quality Alert Air Quality Alert        SOUTHERN QUEENS  -  Air Quality Alert Air Quality Alert      

Active alerts

Northern Queens
  Details for Northern Queens Air Quality Alert
Southern Queens
  Details for Southern Queens Air Quality Alert


WXM80 ListenWXM80 Stop

You find our weather info also at:

UK Metoffice

WeatherCloud

Weather Underground

Northeastern Weather Network

AWEKAS

Citizen Weather Observer Program (CWOP)

HAMweather, WeatherForYou, PWS Weather


Weather Underground History page Text

Daily Summary for November 25, 2017 Units:  Metric    English   Both
« Previous Day
Next Day »
Daily Weekly Monthly Yearly Custom
  High: Low: Average:
Temperature: 14.3 °C 2.8 °C 8.6 °C
Dew Point: 6.9 °C 0.7 °C 3.6 °C
Humidity: 90 % 49 % 72 %
Wind Speed: 13.5 km/h 0 km/h 3.1 km/h
Wind Gust: 27.8 km/h - -
Wind:- - SW
Pressure: 1014.1 hPa 1005 hPa -
Precipitation: 0 mm    
Historical Graphs
 
 
Tabular Data for November 25, 2017
Time Temperature Dew Point Pressure Wind Wind Speed Wind Gust Humidity Rainfall Rate (Hourly)
00:03 5.2 °C 1.7 °C 1014.1 hPa SW 1.4 km/h 5.6 km/h 78 % 0 mm
00:08 5.2 °C 1.4 °C 1013.8 hPa WSW 2.9 km/h 5.6 km/h 77 % 0 mm
00:13 5.2 °C 1.3 °C 1013.8 hPa SW 1.6 km/h 5.6 km/h 76 % 0 mm
00:19 5.2 °C 1.3 °C 1013.8 hPa WSW 1.4 km/h 3.2 km/h 76 % 0 mm
00:24 5.2 °C 1.3 °C 1013.8 hPa WSW 3.5 km/h 11.1 km/h 76 % 0 mm
00:29 5.2 °C 1.3 °C 1013.8 hPa WSW 1.4 km/h 5.6 km/h 76 % 0 mm
00:34 5.2 °C 1.3 °C 1013.8 hPa WSW 0.3 km/h 5.6 km/h 76 % 0 mm
00:39 5.2 °C 1.3 °C 1013.8 hPa WSW 1.9 km/h 5.6 km/h 76 % 0 mm
00:44 5.2 °C 1.1 °C 1014.1 hPa SW 2.4 km/h 3.7 km/h 75 % 0 mm
00:49 5.2 °C 1.3 °C 1013.8 hPa Calm   1.9 km/h 76 % 0 mm
00:54 5.2 °C 1.1 °C 1013.8 hPa SW 3.5 km/h 7.4 km/h 75 % 0 mm
00:59 5.1 °C 1.2 °C 1013.8 hPa WSW 4.2 km/h 9.3 km/h 76 % 0 mm
01:04 5.1 °C 1.2 °C 1013.8 hPa WSW 1.9 km/h 4.8 km/h 76 % 0 mm
01:09 5.1 °C 1.2 °C 1013.8 hPa SW 1.8 km/h 3.7 km/h 76 % 0 mm
01:14 5.1 °C 1.2 °C 1013.8 hPa SW 2.9 km/h 7.4 km/h 76 % 0 mm
01:19 5 °C 1.3 °C 1013.8 hPa SW 2.6 km/h 5.6 km/h 77 % 0 mm
01:24 4.9 °C 1.2 °C 1013.4 hPa SW 1.6 km/h 5.6 km/h 77 % 0 mm
01:28 4.9 °C 1.2 °C 1013.4 hPa SSW 2.4 km/h 11.1 km/h 77 % 0 mm
01:33 4.9 °C 1.2 °C 1013.4 hPa SW 4 km/h 5.6 km/h 77 % 0 mm
01:38 4.9 °C 1.2 °C 1013.4 hPa West 3.2 km/h 7.4 km/h 77 % 0 mm
01:43 4.8 °C 1.3 °C 1013.4 hPa WSW 3.5 km/h 5.6 km/h 78 % 0 mm
01:48 4.8 °C 1.3 °C 1013.4 hPa SW 2.9 km/h 5.6 km/h 78 % 0 mm
01:53 4.8 °C 1.3 °C 1013.4 hPa SW 1.6 km/h 5.6 km/h 78 % 0 mm
01:58 4.8 °C 1.3 °C 1013.4 hPa SW 0.6 km/h 3.7 km/h 78 % 0 mm
02:03 4.8 °C 1.3 °C 1013.4 hPa SW 2.9 km/h 5.6 km/h 78 % 0 mm
02:08 4.8 °C 1.3 °C 1013.4 hPa SW 2.6 km/h 5.6 km/h 78 % 0 mm
02:13 4.8 °C 1.3 °C 1013.4 hPa Calm     78 % 0 mm
02:18 4.8 °C 1.3 °C 1013.4 hPa Calm   1.9 km/h 78 % 0 mm
02:23 4.8 °C 1.3 °C 1013.4 hPa WSW 0.2 km/h 1.9 km/h 78 % 0 mm
02:28 4.7 °C 1.4 °C 1013.4 hPa SW 3.2 km/h 5.6 km/h 79 % 0 mm
02:34 4.7 °C 1.3 °C 1013.1 hPa WSW 1.9 km/h 3.7 km/h 79 % 0 mm
02:39 4.6 °C 1.3 °C 1013.1 hPa SW 0.8 km/h 1.9 km/h 79 % 0 mm
02:44 4.6 °C 1.2 °C 1013.1 hPa Calm   1.6 km/h 79 % 0 mm
02:49 4.6 °C 1.4 °C 1013.1 hPa WSW 0.3 km/h 3.7 km/h 80 % 0 mm
02:54 4.5 °C 1.3 °C 1013.1 hPa WSW 1.1 km/h 5.6 km/h 80 % 0 mm
02:59 4.4 °C 1.3 °C 1013.1 hPa Calm     80 % 0 mm
03:04 4.4 °C 1.3 °C 1012.8 hPa Calm     80 % 0 mm
03:09 4.4 °C 1.2 °C 1012.8 hPa Calm   3.7 km/h 80 % 0 mm
03:14 4.3 °C 1.2 °C 1012.8 hPa Calm     80 % 0 mm
03:19 4.2 °C 1.1 °C 1012.8 hPa Calm     80 % 0 mm
03:24 4.2 °C 1 °C 1012.4 hPa Calm   1.6 km/h 80 % 0 mm
03:29 4.1 °C 1.2 °C 1012.4 hPa SW 0.5 km/h 3.7 km/h 81 % 0 mm
03:34 4.1 °C 1.1 °C 1012.4 hPa Calm   3.7 km/h 81 % 0 mm
03:39 3.9 °C 1.2 °C 1012.4 hPa Calm   1.9 km/h 82 % 0 mm
03:44 3.9 °C 1.1 °C 1012.4 hPa Calm     82 % 0 mm
03:49 3.8 °C 1 °C 1012.4 hPa Calm     82 % 0 mm
03:54 3.7 °C 0.9 °C 1012.4 hPa WSW 0.3 km/h 1.9 km/h 82 % 0 mm
03:59 3.7 °C 1.1 °C 1012.1 hPa WSW 1 km/h 1.9 km/h 83 % 0 mm
04:04 3.6 °C 1 °C 1012.1 hPa Calm     83 % 0 mm
04:09 3.6 °C 0.9 °C 1012.1 hPa Calm     83 % 0 mm
04:14 3.4 °C 0.8 °C 1012.1 hPa WSW 0.5 km/h 1.9 km/h 83 % 0 mm
04:19 3.4 °C 0.9 °C 1012.1 hPa Calm     84 % 0 mm
04:24 3.3 °C 0.9 °C 1012.1 hPa Calm     84 % 0 mm
04:29 3.3 °C 0.8 °C 1012.1 hPa WSW 1.4 km/h 3.7 km/h 84 % 0 mm
04:34 3.2 °C 0.8 °C 1012.1 hPa Calm   1.9 km/h 84 % 0 mm
04:39 3.2 °C 0.7 °C 1012.1 hPa Calm     84 % 0 mm
04:44 3.1 °C 0.7 °C 1011.7 hPa Calm     84 % 0 mm
04:49 3.1 °C 0.8 °C 1011.7 hPa Calm     85 % 0 mm
04:54 3 °C 0.7 °C 1011.7 hPa SW 1.8 km/h 5.6 km/h 85 % 0 mm
04:59 2.9 °C 0.8 °C 1011.7 hPa SSW 0.2 km/h 1.6 km/h 86 % 0 mm
05:04 2.9 °C 0.8 °C 1011.7 hPa WSW 2.3 km/h 4.8 km/h 86 % 0 mm
05:09 2.9 °C 0.9 °C 1011.7 hPa WSW 1.4 km/h 3.7 km/h 87 % 0 mm
05:14 2.9 °C 1.1 °C 1011.7 hPa SW 1.9 km/h 5.6 km/h 88 % 0 mm
05:19 2.9 °C 1.3 °C 1011.4 hPa SW 2.7 km/h 5.6 km/h 89 % 0 mm
05:24 2.9 °C 1.3 °C 1011.4 hPa WSW 1.9 km/h 5.6 km/h 89 % 0 mm
05:29 3 °C 1.4 °C 1011.4 hPa SW 1.8 km/h 5.6 km/h 89 % 0 mm
05:34 3.1 °C 1.6 °C 1011.4 hPa SW 3.1 km/h 4.8 km/h 90 % 0 mm
05:39 3.1 °C 1.6 °C 1011.4 hPa SW 1 km/h 1.9 km/h 90 % 0 mm
05:44 3.2 °C 1.7 °C 1011.4 hPa SW 1.8 km/h 1.9 km/h 90 % 0 mm
05:49 3.2 °C 1.7 °C 1011.4 hPa SW 1.4 km/h 3.7 km/h 90 % 0 mm
05:54 3.3 °C 1.8 °C 1011.4 hPa SW 0.2 km/h 1.9 km/h 90 % 0 mm
05:59 3.3 °C 1.8 °C 1011.4 hPa Calm   1.9 km/h 90 % 0 mm
06:04 3.3 °C 1.8 °C 1011.4 hPa Calm   1.9 km/h 90 % 0 mm
06:09 3.4 °C 1.9 °C 1011.4 hPa SW 0.8 km/h 1.9 km/h 90 % 0 mm
06:14 3.4 °C 1.9 °C 1011.4 hPa SW 0.3 km/h   90 % 0 mm
06:19 3.4 °C 1.9 °C 1011.1 hPa Calm     90 % 0 mm
06:25 3.4 °C 1.9 °C 1011.1 hPa Calm     90 % 0 mm
06:30 3.3 °C 1.7 °C 1011.1 hPa Calm     89 % 0 mm
06:35 3.3 °C 1.7 °C 1011.1 hPa Calm     89 % 0 mm
06:40 3.3 °C 1.6 °C 1011.1 hPa Calm     89 % 0 mm
06:45 3.2 °C 1.4 °C 1011.1 hPa Calm     88 % 0 mm
06:50 3.2 °C 1.4 °C 1011.1 hPa Calm     88 % 0 mm
06:52 3.1 °C 1.3 °C 1011.1 hPa Calm     88 % 0 mm
06:58 3.1 °C 1.3 °C 1011.1 hPa SW 0.8 km/h 3.7 km/h 88 % 0 mm
07:03 3 °C 1.2 °C 1011.1 hPa SW 0.6 km/h 3.7 km/h 88 % 0 mm
07:08 2.9 °C 1.2 °C 1011.1 hPa SW 0.5 km/h 1.9 km/h 88 % 0 mm
07:13 2.9 °C 1.1 °C 1011.1 hPa Calm     88 % 0 mm
07:18 2.9 °C 1.1 °C 1010.7 hPa SW 1.4 km/h 3.7 km/h 88 % 0 mm
07:23 2.8 °C 1.2 °C 1010.7 hPa Calm     89 % 0 mm
07:28 2.9 °C 1.3 °C 1011.1 hPa SW 2.3 km/h 5.6 km/h 89 % 0 mm
07:33 2.9 °C 1.3 °C 1011.1 hPa West 2.7 km/h 5.6 km/h 89 % 0 mm
07:38 3 °C 1.5 °C 1010.7 hPa WSW 0.6 km/h 3.7 km/h 90 % 0 mm
07:43 3.1 °C 1.6 °C 1010.7 hPa SSW 3.4 km/h 7.4 km/h 90 % 0 mm
07:48 3.3 °C 1.8 °C 1010.7 hPa SW 2.3 km/h 4.8 km/h 90 % 0 mm
07:53 3.5 °C 2 °C 1010.7 hPa SW 2.4 km/h 7.4 km/h 90 % 0 mm
07:58 3.7 °C 2.2 °C 1010.7 hPa SW 3.1 km/h 3.7 km/h 90 % 0 mm
08:03 3.9 °C 2.4 °C 1010.7 hPa SSW 2.9 km/h 7.4 km/h 90 % 0 mm
08:08 4.2 °C 2.5 °C 1010.7 hPa SSW 2.3 km/h 5.6 km/h 89 % 0 mm
08:13 4.4 °C 2.6 °C 1010.7 hPa SW 6.6 km/h 11.1 km/h 88 % 0 mm
08:19 4.7 °C 2.7 °C 1010.7 hPa SW 8.2 km/h 9.3 km/h 87 % 0 mm
08:24 5 °C 2.8 °C 1010.7 hPa WSW 9.2 km/h 18.5 km/h 86 % 0 mm
08:29 5.3 °C 2.8 °C 1010.7 hPa SW 5.8 km/h 9.3 km/h 84 % 0 mm
08:34 5.5 °C 2.8 °C 1010.4 hPa West 6 km/h 9.3 km/h 83 % 0 mm
08:39 5.8 °C 3.1 °C 1010.4 hPa West 7.6 km/h 13 km/h 83 % 0 mm
08:44 6.1 °C 3.2 °C 1010.4 hPa SW 4.7 km/h 9.3 km/h 82 % 0 mm
08:49 6.3 °C 3.4 °C 1010.4 hPa SW 3.7 km/h 5.6 km/h 82 % 0 mm
08:54 6.6 °C 3.7 °C 1010.4 hPa SW 1.1 km/h 11.1 km/h 82 % 0 mm
08:59 6.9 °C 3.9 °C 1010.4 hPa West 5.8 km/h 11.3 km/h 81 % 0 mm
09:04 7.4 °C 4.3 °C 1010.4 hPa SW 4.8 km/h 9.3 km/h 81 % 0 mm
09:09 7.8 °C 4.6 °C 1010 hPa SW 7.2 km/h 9.7 km/h 80 % 0 mm
09:14 8.4 °C 4.8 °C 1010 hPa WSW 7.4 km/h 11.1 km/h 78 % 0 mm
09:19 8.8 °C 5 °C 1010 hPa WSW 10.8 km/h 14.8 km/h 77 % 0 mm
09:24 9.3 °C 5.3 °C 1010.4 hPa SW 5.8 km/h 13 km/h 76 % 0 mm
09:29 9.6 °C 5.6 °C 1010.4 hPa SSW 6.1 km/h 9.7 km/h 76 % 0 mm
09:34 10.1 °C 5.6 °C 1010.4 hPa WSW 3.5 km/h 5.6 km/h 74 % 0 mm
09:39 10.4 °C 5.6 °C 1010 hPa WSW 10.5 km/h 16.1 km/h 72 % 0 mm
09:44 10.7 °C 5.2 °C 1010 hPa SSW 5 km/h 9.7 km/h 69 % 0 mm
09:49 10.9 °C 5.2 °C 1010 hPa SSW 8.5 km/h 18.5 km/h 68 % 0 mm
09:54 11.1 °C 5.2 °C 1010 hPa WSW 3.5 km/h 9.7 km/h 67 % 0 mm
09:59 11.3 °C 5.2 °C 1010 hPa SSW 7.2 km/h 13 km/h 66 % 0 mm
10:04 11.6 °C 5 °C 1009.7 hPa SW 7.9 km/h 9.7 km/h 64 % 0 mm
10:10 11.8 °C 4.9 °C 1009.7 hPa SW 4.5 km/h 9.7 km/h 63 % 0 mm
10:15 11.9 °C 5.1 °C 1009.4 hPa SW 0.5 km/h 5.6 km/h 63 % 0 mm
10:20 12 °C 4.9 °C 1009.4 hPa South 3.2 km/h 14.8 km/h 62 % 0 mm
10:25 12.1 °C 4.8 °C 1009.4 hPa WSW 4.3 km/h 9.3 km/h 61 % 0 mm
10:30 12.2 °C 4.9 °C 1009.4 hPa SSW 5 km/h 14.5 km/h 61 % 0 mm
10:35 12.3 °C 4.2 °C 1009.4 hPa WSW 5.8 km/h 9.3 km/h 58 % 0 mm
10:40 12.4 °C 4.1 °C 1009 hPa WSW 6.6 km/h 14.5 km/h 57 % 0 mm
10:45 12.5 °C 4.2 °C 1009 hPa South 4.7 km/h 9.3 km/h 57 % 0 mm
10:50 12.5 °C 3.9 °C 1009 hPa SSW 7.6 km/h 14.8 km/h 56 % 0 mm
10:55 12.4 °C 3.3 °C 1009 hPa SW 10.1 km/h 16.7 km/h 54 % 0 mm
11:00 12.3 °C 2.5 °C 1008.7 hPa SSW 11.1 km/h 25.9 km/h 51 % 0 mm
11:05 12.2 °C 2.6 °C 1008.7 hPa SSW 9.3 km/h 18.5 km/h 52 % 0 mm
11:10 12.1 °C 2.8 °C 1008.4 hPa SSW 13.5 km/h 20.9 km/h 53 % 0 mm
11:15 12 °C 2.9 °C 1008.4 hPa SSW 6.1 km/h 11.1 km/h 54 % 0 mm
11:20 12 °C 3.5 °C 1008.4 hPa WSW 7.6 km/h 11.1 km/h 56 % 0 mm
11:25 12.1 °C 3.3 °C 1008.4 hPa SW 8.9 km/h 11.1 km/h 55 % 0 mm
11:31 12.1 °C 3.3 °C 1008 hPa SSW 6.1 km/h 14.8 km/h 55 % 0 mm
11:35 12.2 °C 3.1 °C 1007.7 hPa SSW 8 km/h 11.1 km/h 54 % 0 mm
11:40 12.2 °C 3.2 °C 1007.7 hPa South 5.1 km/h 11.1 km/h 54 % 0 mm
11:45 12.3 °C 2.9 °C 1007.7 hPa SSW 7.6 km/h 16.7 km/h 53 % 0 mm
11:50 12.3 °C 2.4 °C 1007.7 hPa SSW 8.7 km/h 14.8 km/h 51 % 0 mm
11:55 12.3 °C 2.5 °C 1007.7 hPa SW 8.9 km/h 12.9 km/h 51 % 0 mm
12:00 12.3 °C 2.5 °C 1007.7 hPa SW 9 km/h 13 km/h 51 % 0 mm
12:06 12.4 °C 2.6 °C 1007.3 hPa SW 11.3 km/h 19.3 km/h 51 % 0 mm
12:11 12.4 °C 2 °C 1007.3 hPa SSW 5.8 km/h 13 km/h 49 % 0 mm
12:16 12.6 °C 2.7 °C 1007.3 hPa SSW 9.7 km/h 14.5 km/h 51 % 0 mm
12:21 12.6 °C 2.7 °C 1007.3 hPa SW 4.8 km/h 9.7 km/h 51 % 0 mm
12:26 12.7 °C 2.6 °C 1007.3 hPa South 5.1 km/h 11.1 km/h 50 % 0 mm
12:31 12.8 °C 2.9 °C 1007.3 hPa SSW 8 km/h 14.5 km/h 51 % 0 mm
12:36 12.9 °C 3.3 °C 1007.3 hPa SW 1.6 km/h 4.8 km/h 52 % 0 mm
12:41 12.9 °C 3.1 °C 1007 hPa SSW 9.7 km/h 19.3 km/h 51 % 0 mm
12:46 13 °C 3.1 °C 1007 hPa SSW 4.8 km/h 14.5 km/h 51 % 0 mm
12:51 13.1 °C 2.8 °C 1007 hPa SSW 4.8 km/h 12.9 km/h 50 % 0 mm
12:56 13.1 °C 3.2 °C 1006.7 hPa SW 8 km/h 12.9 km/h 51 % 0 mm
13:01 13.2 °C 3.2 °C 1006.7 hPa SW 7.9 km/h 16.7 km/h 51 % 0 mm
13:06 13.2 °C 3.3 °C 1006.3 hPa South 5 km/h 9.3 km/h 51 % 0 mm
13:11 13.3 °C 3.3 °C 1006.3 hPa SW 2.4 km/h 5.6 km/h 51 % 0 mm
13:16 13.3 °C 3.4 °C 1006.3 hPa SE 4.2 km/h 13 km/h 51 % 0 mm
13:21 13.4 °C 3.7 °C 1006 hPa South 1.3 km/h 11.1 km/h 52 % 0 mm
13:26 13.5 °C 4.1 °C 1006 hPa SSW 4.2 km/h 7.4 km/h 53 % 0 mm
13:31 13.6 °C 3.9 °C 1005.6 hPa SSW 2.6 km/h 27.8 km/h 52 % 0 mm
13:36 13.7 °C 4 °C 1005.6 hPa South 6.4 km/h 11.1 km/h 52 % 0 mm
13:41 13.8 °C 4.1 °C 1006 hPa SW 8.9 km/h 14.8 km/h 52 % 0 mm
13:46 14 °C 4.6 °C 1006 hPa SSW 6.4 km/h 9.7 km/h 53 % 0 mm
13:51 14.2 °C 4.7 °C 1006 hPa WSW 4.7 km/h 11.1 km/h 53 % 0 mm
13:54 14.2 °C 4.7 °C 1006 hPa SSW 5.3 km/h 9.7 km/h 53 % 0 mm
13:59 14.2 °C 4.8 °C 1006 hPa South 3.1 km/h 5.6 km/h 53 % 0 mm
14:04 14.3 °C 4.8 °C 1006 hPa SSW 4 km/h 7.4 km/h 53 % 0 mm
14:07 14.3 °C 5.1 °C 1006 hPa SW 6 km/h 9.7 km/h 54 % 0 mm
14:12 14.2 °C 5.1 °C 1006 hPa SW 0.6 km/h 3.7 km/h 54 % 0 mm
14:17 14.2 °C 5 °C 1006 hPa SSW 9.8 km/h 16.7 km/h 54 % 0 mm
14:22 14.1 °C 4.9 °C 1005.6 hPa SW 10.6 km/h 16.7 km/h 54 % 0 mm
14:27 13.9 °C 5.1 °C 1005.6 hPa WSW 5 km/h 11.1 km/h 55 % 0 mm
14:32 13.8 °C 5.2 °C 1005.6 hPa WSW 9.8 km/h 14.8 km/h 56 % 0 mm
14:38 13.7 °C 5.1 °C 1005.6 hPa SSW 3.2 km/h 5.6 km/h 56 % 0 mm
14:43 13.6 °C 5.2 °C 1005.6 hPa SSW 5 km/h 9.7 km/h 57 % 0 mm
14:48 13.5 °C 5.2 °C 1005.6 hPa SSW 9.3 km/h 13 km/h 57 % 0 mm
14:53 13.4 °C 5.3 °C 1005.6 hPa WNW 3.9 km/h 8 km/h 58 % 0 mm
14:58 13.3 °C 5.5 °C 1005.6 hPa SSW 5.5 km/h 6.4 km/h 59 % 0 mm
15:03 13.2 °C 5.4 °C 1005.6 hPa SW 4.8 km/h 11.1 km/h 59 % 0 mm
15:08 13.2 °C 5.3 °C 1005.6 hPa SW 4.3 km/h 9.3 km/h 59 % 0 mm
15:13 13.1 °C 5.2 °C 1005.6 hPa SSW 5 km/h 7.4 km/h 59 % 0 mm
15:18 13 °C 5.4 °C 1005.6 hPa SW 1.6 km/h 5.6 km/h 60 % 0 mm
15:23 12.9 °C 5.3 °C 1005.6 hPa WSW 1.9 km/h 4.8 km/h 60 % 0 mm
15:28 12.8 °C 5.3 °C 1005.6 hPa WSW 4.2 km/h 11.1 km/h 60 % 0 mm
15:33 12.8 °C 5.2 °C 1005.6 hPa SW 7.2 km/h 11.1 km/h 60 % 0 mm
15:38 12.7 °C 5.3 °C 1005.6 hPa SSW 5 km/h 8 km/h 61 % 0 mm
15:43 12.6 °C 5.2 °C 1005.6 hPa SSW 1.9 km/h 11.3 km/h 61 % 0 mm
15:48 12.5 °C 5.2 °C 1005.6 hPa SSW 1.1 km/h 3.7 km/h 61 % 0 mm
15:53 12.4 °C 5.3 °C 1005.6 hPa SSW 2.4 km/h 5.6 km/h 62 % 0 mm
15:58 12.3 °C 5.3 °C 1005.3 hPa SSW 0.6 km/h 5.6 km/h 62 % 0 mm
16:03 12.2 °C 5.4 °C 1005.3 hPa SSW 1.3 km/h 3.2 km/h 63 % 0 mm
16:08 12.1 °C 5.5 °C 1005.3 hPa SSW 0.6 km/h 3.7 km/h 64 % 0 mm
16:13 11.9 °C 5.3 °C 1005.3 hPa SSW 0.6 km/h 5.6 km/h 64 % 0 mm
16:18 11.8 °C 5.4 °C 1005.3 hPa WSW 1.4 km/h 3.7 km/h 65 % 0 mm
16:23 11.7 °C 5.3 °C 1005.3 hPa WSW 0.6 km/h 5.6 km/h 65 % 0 mm
16:28 11.7 °C 5.3 °C 1005.3 hPa WSW 1.3 km/h 5.6 km/h 65 % 0 mm
16:33 11.6 °C 5.4 °C 1005 hPa SW 1.1 km/h 5.6 km/h 66 % 0 mm
16:38 11.4 °C 5.5 °C 1005 hPa Calm     67 % 0 mm
16:43 11.3 °C 5.4 °C 1005.3 hPa SSW 2.4 km/h 3.7 km/h 67 % 0 mm
16:48 11.2 °C 5.6 °C 1005.3 hPa SSW 1 km/h 5.6 km/h 68 % 0 mm
16:53 11.1 °C 5.4 °C 1005.3 hPa SSW 1 km/h 5.6 km/h 68 % 0 mm
16:58 11 °C 5.5 °C 1005.3 hPa SSW 0.3 km/h 1.9 km/h 69 % 0 mm
17:03 10.9 °C 5.6 °C 1005.3 hPa SSW 0.6 km/h 3.7 km/h 70 % 0 mm
17:13 10.7 °C 5.8 °C 1005.3 hPa SSW 1.8 km/h 3.7 km/h 72 % 0 mm
17:19 10.6 °C 5.7 °C 1005.3 hPa SSW 2.3 km/h 5.6 km/h 72 % 0 mm
17:24 10.5 °C 5.9 °C 1005.3 hPa SSW 0.6 km/h 5.6 km/h 73 % 0 mm
17:29 10.4 °C 6.2 °C 1005.3 hPa WSW 1.4 km/h 3.7 km/h 75 % 0 mm
17:34 10.4 °C 6.2 °C 1005.6 hPa SW 1.4 km/h 5.6 km/h 75 % 0 mm
17:39 10.4 °C 6.3 °C 1005.6 hPa Calm   1.9 km/h 76 % 0 mm
17:44 10.3 °C 6.5 °C 1005.6 hPa SSW 3.5 km/h 6.4 km/h 77 % 0 mm
17:49 10.3 °C 6.5 °C 1005.6 hPa SW 2.3 km/h 5.6 km/h 77 % 0 mm
17:54 10.4 °C 6.7 °C 1005.6 hPa South 2.3 km/h 5.6 km/h 78 % 0 mm
17:59 10.4 °C 6.7 °C 1005.6 hPa SW 4.2 km/h 7.4 km/h 78 % 0 mm
18:04 10.4 °C 6.7 °C 1005.6 hPa WSW 3.4 km/h 6.4 km/h 78 % 0 mm
18:09 10.4 °C 6.7 °C 1005.6 hPa WSW 1.1 km/h 3.7 km/h 78 % 0 mm
18:14 10.4 °C 6.7 °C 1005.6 hPa SSW 3.9 km/h 5.6 km/h 78 % 0 mm
18:19 10.4 °C 6.8 °C 1005.6 hPa SSW 5.6 km/h 7.4 km/h 78 % 0 mm
18:24 10.4 °C 6.8 °C 1005.6 hPa SSW 2.4 km/h 4.8 km/h 78 % 0 mm
18:29 10.4 °C 6.8 °C 1006 hPa SW 5.5 km/h 7.4 km/h 78 % 0 mm
18:34 10.5 °C 6.8 °C 1005.6 hPa SW 2.1 km/h 5.6 km/h 78 % 0 mm
18:39 10.5 °C 6.8 °C 1005.6 hPa SW 2.7 km/h 5.6 km/h 78 % 0 mm
18:44 10.5 °C 6.8 °C 1005.6 hPa SW 1.8 km/h 5.6 km/h 78 % 0 mm
18:49 10.6 °C 6.9 °C 1005.6 hPa SW 2.7 km/h 5.6 km/h 78 % 0 mm
18:54 10.6 °C 6.9 °C 1006 hPa West 1.8 km/h 5.6 km/h 78 % 0 mm
18:59 10.6 °C 6.7 °C 1005.6 hPa SW 2.3 km/h 5.6 km/h 77 % 0 mm
19:04 10.6 °C 6.7 °C 1006 hPa Calm     77 % 0 mm
19:09 10.7 °C 6.8 °C 1006 hPa WSW 1.1 km/h 3.7 km/h 77 % 0 mm
19:14 10.7 °C 6.8 °C 1006 hPa WSW 1.1 km/h 5.6 km/h 77 % 0 mm
19:19 10.7 °C 6.8 °C 1006 hPa WSW 2.1 km/h 5.6 km/h 77 % 0 mm
19:24 10.7 °C 6.6 °C 1006 hPa SW 0.2 km/h 3.7 km/h 76 % 0 mm
19:29 10.7 °C 6.6 °C 1006 hPa WSW 0.8 km/h 3.7 km/h 76 % 0 mm
19:34 10.7 °C 6.6 °C 1006 hPa WSW 1 km/h 5.6 km/h 76 % 0 mm
19:39 10.7 °C 6.6 °C 1006.3 hPa WSW 0.5 km/h 1.9 km/h 76 % 0 mm
19:44 10.7 °C 6.6 °C 1006.3 hPa WSW 0.3 km/h 1.9 km/h 76 % 0 mm
19:49 10.7 °C 6.6 °C 1006.3 hPa WSW 0.3 km/h   76 % 0 mm
19:54 10.6 °C 6.6 °C 1006.3 hPa WSW 1.3 km/h 1.9 km/h 76 % 0 mm
19:59 10.6 °C 6.3 °C 1006.3 hPa SW 3.5 km/h 6.4 km/h 75 % 0 mm
20:04 10.6 °C 6.3 °C 1006.3 hPa SW 1.3 km/h 5.6 km/h 75 % 0 mm
20:09 10.5 °C 6.3 °C 1006 hPa SW 1.3 km/h 3.7 km/h 75 % 0 mm
20:14 10.4 °C 6.2 °C 1006 hPa SW 3.2 km/h 5.6 km/h 75 % 0 mm
20:19 10.4 °C 6.2 °C 1006.3 hPa SSW 4 km/h 6.4 km/h 75 % 0 mm
20:25 10.3 °C 5.9 °C 1006.3 hPa SW 2.3 km/h 3.7 km/h 74 % 0 mm
20:30 10.3 °C 5.8 °C 1006.3 hPa SW 1.3 km/h 1.9 km/h 74 % 0 mm
20:35 10.2 °C 5.7 °C 1006.3 hPa SW 1.1 km/h 3.7 km/h 74 % 0 mm
20:40 10.1 °C 5.6 °C 1006.3 hPa SW 0.3 km/h 1.9 km/h 74 % 0 mm
20:45 10 °C 5.6 °C 1006.3 hPa SW 2.4 km/h 5.6 km/h 74 % 0 mm
20:50 9.9 °C 5.4 °C 1006.3 hPa SW 2.6 km/h 3.7 km/h 74 % 0 mm
20:55 9.8 °C 5.4 °C 1006.3 hPa WSW 1.8 km/h 8 km/h 74 % 0 mm
21:00 9.8 °C 5.2 °C 1006.3 hPa WSW 2.7 km/h 4.8 km/h 73 % 0 mm
21:05 9.7 °C 4.9 °C 1006.3 hPa WSW 2.4 km/h 5.6 km/h 72 % 0 mm
21:10 9.7 °C 4.9 °C 1006.3 hPa SW 3.1 km/h 5.6 km/h 72 % 0 mm
21:15 9.7 °C 4.9 °C 1006.3 hPa SW 0.6 km/h 5.6 km/h 72 % 0 mm
21:20 9.7 °C 4.9 °C 1006.3 hPa SW 2.6 km/h 5.6 km/h 72 % 0 mm
21:25 9.7 °C 4.9 °C 1006.3 hPa WSW 1.3 km/h 5.6 km/h 72 % 0 mm
21:30 9.7 °C 4.7 °C 1006.3 hPa West 0.5 km/h 3.2 km/h 71 % 0 mm
21:35 9.7 °C 4.7 °C 1006.3 hPa SW 4 km/h 7.4 km/h 71 % 0 mm
21:40 9.7 °C 4.7 °C 1006.7 hPa WSW 2.6 km/h 6.4 km/h 71 % 0 mm
21:45 9.7 °C 4.7 °C 1006.3 hPa WSW 1 km/h 3.7 km/h 71 % 0 mm
21:50 9.7 °C 4.7 °C 1006.3 hPa Calm   7.4 km/h 71 % 0 mm
21:55 9.7 °C 4.7 °C 1006.3 hPa WSW 1.3 km/h 6.4 km/h 71 % 0 mm
22:00 9.7 °C 4.7 °C 1006.3 hPa SW 1.9 km/h 5.6 km/h 71 % 0 mm
22:05 9.7 °C 4.7 °C 1006.3 hPa SW 0.2 km/h 1.9 km/h 71 % 0 mm
22:11 9.7 °C 4.7 °C 1006.3 hPa SSW 1.3 km/h 5.6 km/h 71 % 0 mm
22:16 9.7 °C 4.7 °C 1006.3 hPa SW 0.2 km/h 3.2 km/h 71 % 0 mm
22:21 9.7 °C 4.7 °C 1006.3 hPa SSW 1.4 km/h 3.7 km/h 71 % 0 mm
22:26 9.7 °C 4.4 °C 1006.3 hPa SSW 1.1 km/h 3.7 km/h 70 % 0 mm
22:31 9.7 °C 4.5 °C 1006.7 hPa SW 1.8 km/h 5.6 km/h 70 % 0 mm
22:36 9.7 °C 4.3 °C 1006.7 hPa WSW 1.1 km/h 3.7 km/h 69 % 0 mm
22:41 9.7 °C 4.3 °C 1006.7 hPa Calm   3.7 km/h 69 % 0 mm
22:46 9.7 °C 4.3 °C 1006.7 hPa SSW 1 km/h 5.6 km/h 69 % 0 mm
22:51 9.7 °C 4.1 °C 1006.7 hPa West 3.7 km/h 5.6 km/h 68 % 0 mm
22:56 9.7 °C 4.1 °C 1006.7 hPa WSW 0.6 km/h 5.6 km/h 68 % 0 mm
23:01 9.7 °C 4.1 °C 1006.7 hPa WSW 2.4 km/h 5.6 km/h 68 % 0 mm
23:06 9.7 °C 4.1 °C 1006.7 hPa West 4.8 km/h 7.4 km/h 68 % 0 mm
23:11 9.7 °C 3.9 °C 1006.7 hPa WSW 7.2 km/h 16.7 km/h 67 % 0 mm
23:16 9.8 °C 3.9 °C 1006.7 hPa WSW 4.8 km/h 13 km/h 67 % 0 mm
23:21 9.8 °C 4.2 °C 1006.7 hPa West 4.8 km/h 5.6 km/h 68 % 0 mm
23:26 9.9 °C 4.1 °C 1007 hPa West 1.6 km/h 5.6 km/h 67 % 0 mm
23:31 9.9 °C 4.3 °C 1007 hPa West 2.4 km/h 5.6 km/h 68 % 0 mm
23:36 10 °C 4.3 °C 1007 hPa SW 5.6 km/h 7.4 km/h 68 % 0 mm
23:41 10.1 °C 4.4 °C 1007 hPa WSW 1.6 km/h 5.6 km/h 68 % 0 mm
23:46 10.2 °C 4.5 °C 1007 hPa WSW 6.9 km/h 14.5 km/h 68 % 0 mm
23:51 10.2 °C 4.6 °C 1007 hPa West 4.8 km/h 9.3 km/h 68 % 0 mm
23:56 10.3 °C 4.4 °C 1007 hPa West 3.4 km/h 9.3 km/h 67 % 0 mm
Crab Meadow Weather
Compliments of Weather Underground - 3 mb

Script developed by  Jim McMurry - jmcmurry@mwt.net Adapted for the template by  Wim van der Kuil - Leuven-Template.eu

Recycling: Americans use 85,000,000 tons of paper a year; about 680 pounds per person.